Buskirk, New York
Current Conditions -  °F | °C
As of 5:54 AM on Saturday 25 Oct 2014 (Local Time) from KDDH Reporting Station
Overcast Overcast  
Wind Chill:   Ceiling: 1300
Heat Index:   Visibility: 9mi
Dew Point:   Wind: 5mph
Humidity: 96%   Direction: 170°S
Pressure: 29.82"   Gusts: NA
Location:  42.95°N, 73.43°W
Report Text: KDDH 250954Z AUTO 17004KT 9SM OVC013 05/04 A2982 RMK AO2 SLP103 T00500044
Loading
Personal Weather Stations






























Interactive Weather Map
Tropical Storm Tracking
New forecast layout! Learn more

10-Day Weather Forecast

Advertisements
Track Severe Weather on mobile